Rebuck, Pennsylvania
Current Conditions -  °F | °C
As of 7:53 AM on Thursday 27 Nov 2014 (Local Time) from KSEG Reporting Station
Overcast Overcast  
Wind Chill: 31°   Ceiling: 4400
Heat Index: 31°   Visibility: 10mi
Dew Point: 29°   Wind: 3mph
Humidity: 92%   Direction: 10°N
Pressure: 30.03"   Gusts: NA
Location:  40.72°N, 76.73°W
Report Text: KSEG 271253Z AUTO 01003KT 10SM OVC044 M01/M02 A3003 RMK AO2 SLP172 T10061017
Loading
Personal Weather Stations






























Interactive Weather Map New forecast layout! Learn more

10-Day Weather Forecast

Advertisements
Track Severe Weather on mobile